Tobias Lange

Scout - TSG Hoffenheim
5 Dez 2027
Sonntag
Verarbeitung

Persönlichkeit

Anpassungsfähigkeit (16) Ehrgeiz (18) Kontroverse (4) Loyalität (11) Druck (9) Professionalität (18) Fairness (19) Temperament (15)

Profil

Trainerstil Demokratisch
Lizenz Kontinentale C
Entschlossenheit 14
Menschenführung 7
Motivation 6
Disziplin 12
Arbeitszufriedenheit
100%
Ermüdung
0%
Rolle Scout
Gehalt 32.5K p/W
Vertrag 14.03.2028

Leistung

Verhalten Gut
Trainingseffektivität
52%
Spielerentwicklung
50%
Verletzungsprävention
50%
Taktische Umsetzung
50%

Letzte Ereignisse

Nahm an einer Scouting-Besprechung teil jetzt
Nahm an einer Scouting-Besprechung teil jetzt
Nahm an einer Scouting-Besprechung teil 7T her
Nahm an einer Scouting-Besprechung teil 7T her
Nahm an einer Scouting-Besprechung teil 7T her
Spiel beobachtet 7T her
Nahm an einer Scouting-Besprechung teil 14T her
Spiel beobachtet 14T her

Aktuell beobachtet

88
Spieler Verein Status Fähigkeit Vertrauen Beobachtet Zuletzt beobachtet Letzte Stimme
Álex Baena Werder Bremen Aktiv 159 / 155 40% 3 29.05.2027 -
Kang-In Lee Atlético Madrid Aktiv 161 / 156 40% 4 29.05.2027 -
Assane Diao Fiorentina Aktiv 142 / 147 40% 1 29.05.2027 -
Miguel Gutiérrez Bayer Leverkusen Aktiv 151 / 150 40% 4 27.05.2027 -
Moisés Caicedo Chelsea Aktiv 174 / 168 40% 4 27.05.2027 -
Fran García Betis Aktiv 154 / 152 40% 2 27.05.2027 -
Florentino Luís Ipswich Town Aktiv 142 / 141 40% 2 26.05.2027 -
Ramón Terrats Getafe Aktiv 144 / 136 40% 1 26.05.2027 -
João Pedro Chelsea Aktiv 149 / 153 40% 4 25.05.2027 -
Morgan Rogers Chelsea Aktiv 161 / 160 40% 2 25.05.2027 -
Xavi Simons Tottenham Aktiv 155 / 162 40% 1 25.05.2027 -
Kevin Schade Brentford Aktiv 152 / 147 40% 3 24.05.2027 -
Felix Nmecha Borussia Dortmund Aktiv 161 / 155 40% 3 24.05.2027 -
Pedro Porro Tottenham Aktiv 145 / 150 40% 3 24.05.2027 -
Nnamdi Collins Eintracht Frankfurt Aktiv 133 / 147 40% 2 24.05.2027 -
Mario Vega Sevilla Aktiv 144 / 142 40% 1 24.05.2027 -
Manu Koné AS Roma Aktiv 166 / 159 40% 7 22.05.2027 -
Mohamed Belloumi Hull City Aktiv 137 / 139 40% 2 21.05.2027 -
Sven Botman Newcastle United Aktiv 160 / 156 40% 3 20.05.2027 -
Wesley Fofana Chelsea Aktiv 163 / 160 40% 2 20.05.2027 -
Boubacar Kamara Aston Villa Aktiv 161 / 164 40% 4 19.05.2027 -
Matt O'Riley Blackburn Rovers Aktiv 146 / 144 40% 2 19.05.2027 -
Lilian Brassier Eintracht Frankfurt Aktiv 143 / 143 40% 2 14.05.2027 -
Albert Sambi Lokonga Hamburger SV Aktiv 140 / 143 40% 1 14.05.2027 -
Bryan Gil Alavés Aktiv 149 / 152 40% 4 13.05.2027 -
Bilal El Khannouss VfB Stuttgart Aktiv 151 / 151 40% 1 13.05.2027 -
Kevin Fulham Aktiv 154 / 147 40% 3 12.05.2027 -
Brennan Johnson Everton Aktiv 145 / 142 40% 3 12.05.2027 -
Iván Romero Levante Aktiv 137 / 135 40% 1 12.05.2027 -
Alexis Saelemaekers AC Milan Aktiv 159 / 153 40% 2 11.05.2027 -
Amadou Onana Aston Villa Aktiv 160 / 159 40% 3 10.05.2027 -
Giacomo Raspadori Atalanta Aktiv 147 / 149 40% 1 10.05.2027 -
Sergio Gómez Real Sociedad Aktiv 140 / 143 40% 2 09.05.2027 -
Juanlu Bournemouth Aktiv 145 / 144 40% 1 09.05.2027 -
Luc François Tours Aktiv 157 / 163 40% 1 09.05.2027 -
Wilson Odobert Brighton Aktiv 135 / 138 40% 2 08.05.2027 -
Pau Víctor Braga Aktiv 135 / 140 40% 1 08.05.2027 -
Morgan Gibbs-White Nottingham Forest Aktiv 151 / 157 40% 3 06.05.2027 -
Yankuba Minteh Brighton Aktiv 150 / 159 40% 2 06.05.2027 -
Charles De Ketelaere Atalanta Aktiv 156 / 152 40% 1 06.05.2027 -
Ez Abde Betis Aktiv 158 / 152 40% 2 05.05.2027 -
Rodrigo Gomes Wolverhampton Aktiv 141 / 144 40% 1 05.05.2027 -
Adam Wharton Crystal Palace Aktiv 157 / 159 40% 4 03.05.2027 -
Loïc Badé Bayer Leverkusen Aktiv 152 / 153 40% 1 03.05.2027 Mehr Infos nötig
Yehor Yarmoliuk Brentford Aktiv 148 / 151 40% 1 03.05.2027 -
Noah Sadiki Sunderland Aktiv 147 / 148 40% 2 02.05.2027 -
Jesús Areso Athletic Bilbao Aktiv 147 / 138 40% 1 02.05.2027 -
Curtis Jones Inter Aktiv 153 / 156 40% 2 01.05.2027 Mehr Infos nötig
Carlos Romero Villarreal Aktiv 152 / 146 40% 1 01.05.2027 -
Roberto Fernández Braga Aktiv 147 / 144 40% 2 30.04.2027 -
Mikel Jauregizar Athletic Bilbao Aktiv 161 / 157 40% 2 30.04.2027 -
Gonzalo Fulham Aktiv 143 / 151 40% 1 30.04.2027 -
Roméo Lavia Chelsea Aktiv 152 / 152 40% 1 30.04.2027 -
Alex Scott Bournemouth Aktiv 153 / 156 40% 1 30.04.2027 -
Angelo Stiller VfB Stuttgart Aktiv 161 / 150 40% 5 28.04.2027 -
Moussa Diaby Bayer Leverkusen Aktiv 145 / 143 40% 3 27.04.2027 -
Sergi Cardona Villarreal Aktiv 148 / 142 40% 2 26.04.2027 -
Christoph Baumgartner RB Leipzig Aktiv 152 / 152 40% 6 26.04.2027 -
Manor Solomon West Ham United Aktiv 145 / 145 40% 1 26.04.2027 -
Callum Hudson-Odoi Nottingham Forest Aktiv 157 / 147 40% 2 24.04.2027 -
Chemsdine Talbi Sunderland Aktiv 140 / 151 40% 1 24.04.2027 -
Levi Colwill Chelsea Aktiv 161 / 157 40% 2 22.04.2027 -
Pablo Torre Mallorca Aktiv 142 / 148 40% 1 22.04.2027 -
Jamie Gittens Newcastle United Aktiv 145 / 148 40% 1 22.04.2027 -
Eric Martel Mainz 05 Aktiv 144 / 138 40% 1 22.04.2027 -
Nico Schlotterbeck Borussia Dortmund Aktiv 169 / 161 40% 3 21.04.2027 -
Reiss Nelson Borussia Dortmund Aktiv 150 / 143 40% 1 18.04.2027 -
Jacob Ramsey Newcastle United Aktiv 149 / 152 40% 1 16.04.2027 -
Malo Gusto Olympique de Marseille Aktiv 152 / 147 40% 1 14.04.2027 -
Johnny Cardoso Atlético Madrid Aktiv 156 / 152 40% 2 11.04.2027 -
Khéphren Thuram Juventus Aktiv 154 / 163 40% 2 10.04.2027 -
Luís Henrique Inter Aktiv 139 / 144 40% 1 10.04.2027 -
Carlos Álvarez Club America Aktiv 139 / 137 40% 1 10.04.2027 -
Sandro Tonali Tottenham Aktiv 169 / 167 40% 2 09.04.2027 -
Dejan Kulusevski Tottenham Aktiv 166 / 161 40% 1 08.04.2027 -
Óscar Mingueza Crystal Palace Aktiv 146 / 152 40% 1 06.04.2027 -
Ethan Ampadu Leeds United Aktiv 148 / 148 40% 1 06.04.2027 -
Raphael Onyedika Eintracht Frankfurt Aktiv 137 / 135 40% 1 05.04.2027 -
Castello Lukeba RB Leipzig Aktiv 162 / 158 40% 1 05.04.2027 -
Liam Delap Nottingham Forest Aktiv 149 / 144 40% 1 31.03.2027 -
Yeremy Pino Crystal Palace Aktiv 154 / 149 40% 2 27.03.2027 -
Antony Betis Aktiv 159 / 156 40% 1 27.03.2027 -
Oihan Sancet Athletic Bilbao Aktiv 158 / 154 40% 2 23.03.2027 -
Aitor Paredes Athletic Bilbao Aktiv 152 / 144 40% 1 22.03.2027 -
Quinten Timber Crystal Palace Aktiv 151 / 155 40% 1 18.03.2027 -
Javi Guerra Valencia Aktiv 146 / 142 40% 1 18.03.2027 -
Jorge Mina Valencia Aktiv 140 / 148 40% 1 15.03.2027 -
Nico Williams Athletic Bilbao Aktiv 164 / 165 40% 1 31.12.2026 -